Time;durP1;ratioP1;P1;durP2;ratioP2;P2;SDS_P1;SDS_P2;PMS_P1;PMS_P2;Temp;Humidity;BMP_temperature;BMP_pressure;BME280_temperature;BME280_humidity;BME280_pressure;Samples;Min_cycle;Max_cycle;Signal;HPM_P1;HPM_P2
2023/09/03 00:00:35;;;;;;;;;;;;;;;13.52;76.87;101824.22;105774;1271;66152;-84
2023/09/03 00:03:24;;;;;;;;;;;;;;;13.51;76.89;101819.27;105743;1271;72995;-85
2023/09/03 00:05:50;;;;;;;;;;;;;;;13.51;76.81;101820.13;105739;1271;61293;-84
2023/09/03 00:08:17;;;;;;;;;;;;;;;13.50;76.97;101820.11;105511;1268;124885;-85
2023/09/03 00:10:47;;;;;;;;;;;;;;;13.49;77.01;101819.89;105774;1271;73414;-84
2023/09/03 00:13:13;;;;;;;;;;;;;;;13.49;77.12;101817.24;105788;1268;125038;-84
2023/09/03 00:15:40;;;;;;;;;;;;;;;13.49;77.14;101816.20;105838;1270;61270;-85
2023/09/03 00:18:07;;;;;;;;;;;;;;;13.48;77.27;101812.65;105878;1272;61279;-85
2023/09/03 00:20:33;;;;;;;;;;;;;;;13.49;77.26;101811.42;105868;1269;125312;-85
2023/09/03 00:23:00;;;;;;;;;;;;;;;13.49;77.37;101811.98;105801;1271;61210;-85
2023/09/03 00:25:33;;;;;;;;;;;;;;;13.51;77.52;101810.61;105727;1271;125017;-87
2023/09/03 00:28:00;;;;;;;;;;;;;;;13.50;77.49;101810.06;105657;1271;72603;-85
2023/09/03 00:30:26;;;;;;;;;;;;;;;13.50;77.51;101809.00;105844;1270;61194;-84
2023/09/03 00:32:53;;;;;;;;;;;;;;;13.50;77.65;101809.72;105620;1273;125472;-85
2023/09/03 00:35:20;;;;;;;;;;;;;;;13.51;77.68;101813.25;105804;1271;61921;-85
2023/09/03 00:37:46;;;;;;;;;;;;;;;13.50;77.78;101810.58;105615;1271;124958;-83
2023/09/03 00:40:13;;;;;;;;;;;;;;;13.51;77.78;101811.13;105813;1271;61390;-82
2023/09/03 00:42:39;;;;;;;;;;;;;;;13.51;77.86;101805.14;105871;1271;61199;-83
2023/09/03 00:45:06;;;;;;;;;;;;;;;13.51;77.97;101808.32;105756;1274;125870;-84
2023/09/03 00:47:32;;;;;;;;;;;;;;;13.51;78.08;101809.02;105686;1270;74731;-83
2023/09/03 00:49:59;;;;;;;;;;;;;;;13.52;78.13;101813.65;105702;1271;124867;-84
2023/09/03 00:52:25;;;;;;;;;;;;;;;13.52;78.14;101817.70;105722;1271;71446;-84
2023/09/03 00:54:52;;;;;;;;;;;;;;;13.52;78.21;101814.52;105910;1269;61332;-85
2023/09/03 00:57:19;;;;;;;;;;;;;;;13.52;78.17;101819.10;105571;1274;61358;-84
2023/09/03 00:59:45;;;;;;;;;;;;;;;13.52;78.18;101817.16;105904;1272;61301;-83
2023/09/03 01:02:14;;;;;;;;;;;;;;;13.51;78.17;101811.67;105602;1271;124971;-83
2023/09/03 01:04:41;;;;;;;;;;;;;;;13.51;78.18;101807.96;105748;1271;71843;-85
2023/09/03 01:07:08;;;;;;;;;;;;;;;13.50;78.21;101805.12;105601;1273;125095;-85
2023/09/03 01:09:34;;;;;;;;;;;;;;;13.49;78.30;101801.55;105786;1272;61858;-85
2023/09/03 01:12:04;;;;;;;;;;;;;;;13.49;78.29;101799.79;105712;1271;74688;-85
2023/09/03 01:14:45;;;;;;;;;;;;;;;13.50;78.40;101798.94;105800;1272;124995;-84
2023/09/03 01:17:13;;;;;;;;;;;;;;;13.49;78.43;101792.73;105667;1274;72591;-84
2023/09/03 01:19:44;;;;;;;;;;;;;;;13.46;78.36;101788.94;105718;1271;124804;-86
2023/09/03 01:22:16;;;;;;;;;;;;;;;13.43;78.38;101784.98;105568;1269;59886;-85
2023/09/03 01:25:05;;;;;;;;;;;;;;;13.40;78.38;101784.73;105824;1272;73585;-85
2023/09/03 01:27:54;;;;;;;;;;;;;;;13.40;78.54;101782.78;105931;1273;64603;-84
2023/09/03 01:30:21;;;;;;;;;;;;;;;13.38;78.51;101779.54;104860;1279;72800;-84
2023/09/03 01:32:47;;;;;;;;;;;;;;;13.37;78.55;101779.52;104695;1279;125591;-82
2023/09/03 01:35:14;;;;;;;;;;;;;;;13.37;78.64;101782.33;104781;1278;61295;-83
2023/09/03 01:37:40;;;;;;;;;;;;;;;13.35;78.67;101784.06;104611;1279;125444;-83
2023/09/03 01:40:07;;;;;;;;;;;;;;;13.34;78.68;101788.95;104890;1279;59399;-84
2023/09/03 01:42:33;;;;;;;;;;;;;;;13.33;78.69;101791.75;104842;1281;72382;-84
2023/09/03 01:45:00;;;;;;;;;;;;;;;13.31;78.65;101794.69;104927;1276;125090;-83
2023/09/03 01:47:28;;;;;;;;;;;;;;;13.30;78.67;101795.13;104796;1284;61334;-84
2023/09/03 01:49:58;;;;;;;;;;;;;;;13.27;78.88;101793.81;104856;1279;124932;-83
2023/09/03 01:52:28;;;;;;;;;;;;;;;13.24;78.78;101794.96;104714;1278;65853;-86
2023/09/03 01:54:55;;;;;;;;;;;;;;;13.20;78.82;101797.84;104807;1279;72707;-85
2023/09/03 01:57:28;;;;;;;;;;;;;;;13.16;78.87;101800.70;104735;1279;125351;-86
2023/09/03 01:59:58;;;;;;;;;;;;;;;13.13;78.96;101808.89;104866;1279;61361;-86
2023/09/03 02:02:25;;;;;;;;;;;;;;;13.10;78.95;101811.29;104677;1279;125548;-87
2023/09/03 02:04:51;;;;;;;;;;;;;;;13.08;79.13;101815.59;104832;1279;64940;-87
2023/09/03 02:07:18;;;;;;;;;;;;;;;13.04;79.19;101816.17;104946;1271;124957;-86
2023/09/03 02:09:45;;;;;;;;;;;;;;;13.01;79.10;101816.08;105634;1275;61390;-86
2023/09/03 02:12:11;;;;;;;;;;;;;;;12.95;79.05;101815.20;105849;1274;61134;-86
2023/09/03 02:14:38;;;;;;;;;;;;;;;12.89;79.11;101815.52;105688;1268;124848;-86
2023/09/03 02:17:04;;;;;;;;;;;;;;;12.84;79.11;101814.30;105860;1273;64353;-85
2023/09/03 02:19:31;;;;;;;;;;;;;;;12.79;79.12;101817.85;105759;1273;125044;-83
2023/09/03 02:21:57;;;;;;;;;;;;;;;12.76;79.24;101818.09;105896;1270;61486;-82
2023/09/03 02:24:24;;;;;;;;;;;;;;;12.72;79.09;101820.09;105855;1272;61326;-84
2023/09/03 02:26:50;;;;;;;;;;;;;;;12.68;79.08;101823.27;105743;1273;124971;-85
2023/09/03 02:29:17;;;;;;;;;;;;;;;12.61;79.02;101818.48;105833;1270;61220;-85
2023/09/03 02:31:43;;;;;;;;;;;;;;;12.55;79.27;101816.17;105601;1271;126010;-83
2023/09/03 02:34:11;;;;;;;;;;;;;;;12.52;79.16;101817.11;105871;1269;61085;-85
2023/09/03 02:36:38;;;;;;;;;;;;;;;12.48;79.25;101818.37;105495;1274;60181;-86
2023/09/03 02:39:04;;;;;;;;;;;;;;;12.43;79.30;101819.29;105634;1271;125936;-85
2023/09/03 02:41:31;;;;;;;;;;;;;;;12.38;79.30;101821.75;105844;1270;65072;-84
2023/09/03 02:43:58;;;;;;;;;;;;;;;12.35;79.34;101819.70;105779;1271;124832;-84
2023/09/03 02:46:25;;;;;;;;;;;;;;;12.32;79.40;101819.05;105954;1272;61403;-83
2023/09/03 02:48:51;;;;;;;;;;;;;;;12.29;79.53;101821.08;105731;1270;61243;-84
2023/09/03 02:51:18;;;;;;;;;;;;;;;12.26;79.51;101822.89;105672;1270;124757;-82
2023/09/03 02:53:45;;;;;;;;;;;;;;;12.22;79.50;101825.39;105841;1271;59334;-83
2023/09/03 02:56:13;;;;;;;;;;;;;;;12.19;79.65;101824.77;105790;1270;124806;-84
2023/09/03 02:58:41;;;;;;;;;;;;;;;12.15;79.66;101830.10;105610;1270;59355;-80
2023/09/03 03:01:11;;;;;;;;;;;;;;;12.14;79.69;101830.39;105858;1271;124978;-82
2023/09/03 03:03:37;;;;;;;;;;;;;;;12.11;79.82;101833.13;105867;1270;75658;-82
2023/09/03 03:06:04;;;;;;;;;;;;;;;12.10;79.71;101834.30;105565;1271;59906;-83
2023/09/03 03:08:30;;;;;;;;;;;;;;;12.07;79.75;101837.02;105675;1276;125082;-84
2023/09/03 03:11:07;;;;;;;;;;;;;;;12.04;79.76;101837.61;105784;1270;61194;-81
2023/09/03 03:13:34;;;;;;;;;;;;;;;12.01;79.68;101840.13;105614;1269;125160;-83
2023/09/03 03:16:05;;;;;;;;;;;;;;;11.97;79.74;101842.46;105631;1274;74039;-83
2023/09/03 03:18:32;;;;;;;;;;;;;;;11.94;79.75;101845.17;105822;1276;66274;-82
2023/09/03 03:21:05;;;;;;;;;;;;;;;11.94;79.87;101848.13;105801;1273;125414;-83
2023/09/03 03:23:33;;;;;;;;;;;;;;;11.93;79.95;101847.75;105856;1270;61253;-83
2023/09/03 03:26:00;;;;;;;;;;;;;;;11.92;80.08;101846.11;105673;1271;125412;-83
2023/09/03 03:28:27;;;;;;;;;;;;;;;11.91;80.16;101847.16;105852;1269;73034;-83
2023/09/03 03:30:53;;;;;;;;;;;;;;;11.91;80.20;101844.85;105773;1272;65287;-84
2023/09/03 03:33:20;;;;;;;;;;;;;;;11.90;80.34;101844.81;105620;1271;126527;-84
2023/09/03 03:35:46;;;;;;;;;;;;;;;11.88;80.39;101841.91;105800;1269;61283;-85
2023/09/03 03:38:13;;;;;;;;;;;;;;;11.87;80.41;101838.17;105808;1271;125034;-84
2023/09/03 03:40:39;;;;;;;;;;;;;;;11.86;80.53;101843.06;105873;1273;61379;-82
2023/09/03 03:43:06;;;;;;;;;;;;;;;11.84;80.63;101844.44;105829;1269;125365;-82
2023/09/03 03:45:32;;;;;;;;;;;;;;;11.83;80.66;101843.85;105623;1271;61209;-85
2023/09/03 03:47:59;;;;;;;;;;;;;;;11.83;80.51;101843.66;105697;1270;61358;-84
2023/09/03 03:50:28;;;;;;;;;;;;;;;11.82;80.50;101844.50;105815;1270;125103;-82
2023/09/03 03:52:55;;;;;;;;;;;;;;;11.82;80.68;101843.29;105978;1272;74628;-85
2023/09/03 03:55:21;;;;;;;;;;;;;;;11.83;80.62;101842.80;105769;1270;125072;-83
2023/09/03 03:57:48;;;;;;;;;;;;;;;11.84;80.66;101843.86;105758;1271;59522;-84
2023/09/03 04:00:14;;;;;;;;;;;;;;;11.84;80.69;101842.11;105773;1271;61208;-84
2023/09/03 04:02:41;;;;;;;;;;;;;;;11.85;80.73;101843.91;105758;1273;126453;-81
2023/09/03 04:05:07;;;;;;;;;;;;;;;11.94;81.14;101839.18;105856;1270;74715;-86
2023/09/03 04:07:34;;;;;;;;;;;;;;;12.13;81.44;101842.52;105871;1273;125344;-85
2023/09/03 04:10:00;;;;;;;;;;;;;;;12.37;81.62;101838.63;105881;1274;61295;-84
2023/09/03 04:12:27;;;;;;;;;;;;;;;12.57;81.31;101838.09;105778;1273;61177;-87
2023/09/03 04:14:53;;;;;;;;;;;;;;;12.62;80.55;101838.61;105439;1274;124991;-86
2023/09/03 04:17:20;;;;;;;;;;;;;;;12.61;80.34;101836.27;105873;1270;61239;-85
2023/09/03 04:19:48;;;;;;;;;;;;;;;12.62;80.52;101836.66;105716;1274;125007;-83
2023/09/03 04:22:14;;;;;;;;;;;;;;;12.66;80.46;101836.08;105859;1273;71723;-84
2023/09/03 04:24:41;;;;;;;;;;;;;;;12.69;80.63;101837.23;105842;1271;61368;-83
2023/09/03 04:27:08;;;;;;;;;;;;;;;12.75;80.61;101839.38;105633;1270;124864;-84
2023/09/03 04:29:35;;;;;;;;;;;;;;;12.86;80.85;101842.38;105763;1271;74752;-84
2023/09/03 04:32:01;;;;;;;;;;;;;;;13.37;82.25;101844.73;105811;1271;124814;-83
2023/09/03 04:34:28;;;;;;;;;;;;;;;13.96;81.81;101841.91;105807;1270;72676;-82
2023/09/03 04:36:54;;;;;;;;;;;;;;;14.25;80.96;101842.17;105821;1276;61441;-81
2023/09/03 04:39:21;;;;;;;;;;;;;;;14.94;81.75;101840.98;105799;1270;124745;-82
2023/09/03 04:41:48;;;;;;;;;;;;;;;15.91;81.73;101842.13;105843;1272;61256;-81
2023/09/03 04:44:14;;;;;;;;;;;;;;;16.92;80.83;101837.27;105802;1270;124807;-81
2023/09/03 04:46:41;;;;;;;;;;;;;;;17.92;79.82;101835.34;105851;1273;72089;-82
2023/09/03 04:49:08;;;;;;;;;;;;;;;18.91;78.52;101832.10;105809;1270;126700;-83
2023/09/03 04:51:34;;;;;;;;;;;;;;;19.84;76.97;101830.71;105950;1273;61379;-83
2023/09/03 04:54:01;;;;;;;;;;;;;;;20.58;75.31;101832.00;105741;1274;74845;-83
2023/09/03 04:56:28;;;;;;;;;;;;;;;21.17;73.68;101833.78;105730;1270;124199;-82
2023/09/03 04:58:54;;;;;;;;;;;;;;;21.71;72.54;101832.95;105834;1274;72458;-83
2023/09/03 05:01:21;;;;;;;;;;;;;;;21.87;70.63;101835.91;105797;1271;124605;-82
2023/09/03 05:03:47;;;;;;;;;;;;;;;22.06;70.07;101838.86;105787;1273;61225;-85
2023/09/03 05:06:14;;;;;;;;;;;;;;;22.21;68.94;101841.81;105824;1273;61195;-83
2023/09/03 05:08:40;;;;;;;;;;;;;;;22.04;67.67;101839.23;105814;1271;124142;-87
2023/09/03 05:11:12;;;;;;;;;;;;;;;21.67;66.62;101845.27;105710;1273;72832;-90
2023/09/03 05:13:39;;;;;;;;;;;;;;;21.20;66.15;101845.90;105804;1270;124562;-92
2023/09/03 05:16:05;;;;;;;;;;;;;;;20.77;66.17;101845.05;105455;1270;61260;-90
2023/09/03 05:18:33;;;;;;;;;;;;;;;20.39;66.35;101843.19;105691;1276;74819;-95
2023/09/03 05:21:07;;;;;;;;;;;;;;;20.04;66.43;101847.02;105725;1276;125256;-91
2023/09/03 05:23:33;;;;;;;;;;;;;;;19.69;66.73;101843.84;105794;1269;71097;-91
2023/09/03 05:26:00;;;;;;;;;;;;;;;19.44;67.04;101846.71;105482;1273;126867;-83
2023/09/03 05:28:27;;;;;;;;;;;;;;;19.19;67.19;101852.43;105928;1270;61202;-84
2023/09/03 05:30:53;;;;;;;;;;;;;;;18.93;67.42;101853.48;105864;1273;61282;-84
2023/09/03 05:33:20;;;;;;;;;;;;;;;18.70;67.62;101855.92;105734;1270;124842;-84
2023/09/03 05:35:46;;;;;;;;;;;;;;;18.48;67.91;101866.20;105770;1270;71458;-84
2023/09/03 05:38:13;;;;;;;;;;;;;;;18.25;68.08;101871.82;105659;1272;125207;-88
2023/09/03 05:40:40;;;;;;;;;;;;;;;18.07;68.45;101878.89;105781;1269;59666;-85
2023/09/03 05:43:07;;;;;;;;;;;;;;;17.95;68.84;101882.65;105673;1270;125018;-85
2023/09/03 05:45:33;;;;;;;;;;;;;;;17.89;69.32;101879.73;105734;1272;65116;-85
2023/09/03 05:48:00;;;;;;;;;;;;;;;17.83;69.46;101875.20;105850;1270;71953;-84
2023/09/03 05:50:29;;;;;;;;;;;;;;;17.74;69.66;101877.19;105724;1270;125347;-86
2023/09/03 05:52:56;;;;;;;;;;;;;;;17.67;69.93;101875.86;105684;1270;61212;-87
2023/09/03 05:55:22;;;;;;;;;;;;;;;17.59;69.97;101871.13;105653;1269;125238;-94
2023/09/03 05:57:52;;;;;;;;;;;;;;;17.53;70.26;101869.27;105690;1270;66342;-92
2023/09/03 06:00:18;;;;;;;;;;;;;;;17.54;70.67;101870.16;105495;1270;71998;-90
2023/09/03 06:02:45;;;;;;;;;;;;;;;17.58;70.89;101874.48;105583;1270;124256;-89
2023/09/03 06:05:12;;;;;;;;;;;;;;;17.67;71.17;101878.16;105734;1270;61892;-86
2023/09/03 06:07:38;;;;;;;;;;;;;;;17.80;71.32;101877.98;105360;1275;124713;-85
2023/09/03 06:10:05;;;;;;;;;;;;;;;17.99;71.50;101873.98;105512;1273;61317;-86
2023/09/03 06:12:31;;;;;;;;;;;;;;;18.18;71.64;101872.98;105784;1270;72753;-88
2023/09/03 06:14:58;;;;;;;;;;;;;;;18.38;71.47;101867.15;105508;1269;124116;-87
2023/09/03 06:17:24;;;;;;;;;;;;;;;18.50;71.26;101870.66;105608;1276;61173;-86
2023/09/03 06:19:51;;;;;;;;;;;;;;;18.61;71.12;101866.49;105375;1274;124678;-87
2023/09/03 06:22:18;;;;;;;;;;;;;;;18.70;70.91;101860.90;105650;1276;66305;-87
2023/09/03 06:24:44;;;;;;;;;;;;;;;18.74;70.78;101863.42;105604;1270;73273;-85
2023/09/03 06:27:11;;;;;;;;;;;;;;;18.73;70.56;101867.69;105484;1270;124471;-85
2023/09/03 06:29:37;;;;;;;;;;;;;;;18.69;70.53;101866.04;105515;1273;61258;-88
2023/09/03 06:32:06;;;;;;;;;;;;;;;18.64;70.43;101867.05;105427;1275;124415;-89
2023/09/03 06:34:35;;;;;;;;;;;;;;;18.64;70.52;101865.27;105812;1270;63973;-89
2023/09/03 06:37:02;;;;;;;;;;;;;;;18.69;70.56;101864.80;105429;1270;124220;-87
2023/09/03 06:39:30;;;;;;;;;;;;;;;18.74;70.56;101871.60;105513;1276;61314;-86
2023/09/03 06:41:57;;;;;;;;;;;;;;;18.86;70.63;101872.08;105606;1270;61159;-87
2023/09/03 06:44:24;;;;;;;;;;;;;;;18.98;70.57;101871.13;105414;1269;124668;-89
2023/09/03 06:46:51;;;;;;;;;;;;;;;19.15;70.59;101876.59;105647;1267;66396;-85
2023/09/03 06:49:17;;;;;;;;;;;;;;;19.37;70.64;101881.02;105608;1269;124636;-88
2023/09/03 06:51:44;;;;;;;;;;;;;;;19.61;70.46;101883.66;105709;1268;61377;-87
2023/09/03 06:54:10;;;;;;;;;;;;;;;19.75;70.08;101891.60;105767;1268;61301;-85
2023/09/03 06:56:37;;;;;;;;;;;;;;;19.84;69.85;101894.52;105570;1270;124462;-87
2023/09/03 06:59:03;;;;;;;;;;;;;;;19.91;69.60;101895.61;105664;1270;59381;-89
2023/09/03 07:01:30;;;;;;;;;;;;;;;19.94;69.48;101897.23;105629;1273;126773;-84
2023/09/03 07:03:56;;;;;;;;;;;;;;;19.95;69.30;101895.10;105852;1269;59749;-85
2023/09/03 07:06:23;;;;;;;;;;;;;;;19.92;69.35;101890.98;105972;1270;61309;-86
2023/09/03 07:08:55;;;;;;;;;;;;;;;19.89;69.23;101889.00;105727;1270;125096;-87
2023/09/03 07:11:23;;;;;;;;;;;;;;;19.82;69.34;101888.44;105840;1270;66373;-86
2023/09/03 07:13:53;;;;;;;;;;;;;;;19.75;69.27;101890.54;105592;1270;125914;-82
2023/09/03 07:16:20;;;;;;;;;;;;;;;19.74;69.46;101889.29;105816;1270;59551;-89
2023/09/03 07:18:51;;;;;;;;;;;;;;;19.76;69.62;101886.98;105792;1268;61253;-90
2023/09/03 07:21:19;;;;;;;;;;;;;;;19.79;69.73;101889.85;105280;1276;125190;-84
2023/09/03 07:23:46;;;;;;;;;;;;;;;19.83;69.70;101890.75;105609;1274;65042;-85
2023/09/03 07:26:12;;;;;;;;;;;;;;;19.85;69.66;101891.48;105600;1276;124977;-83
2023/09/03 07:28:39;;;;;;;;;;;;;;;19.88;69.53;101894.17;105716;1273;61413;-82
2023/09/03 07:31:05;;;;;;;;;;;;;;;19.94;69.57;101895.63;105663;1270;125736;-81
2023/09/03 07:33:32;;;;;;;;;;;;;;;20.06;69.48;101899.23;105820;1273;61312;-82
2023/09/03 07:35:59;;;;;;;;;;;;;;;20.15;69.25;101895.17;105616;1273;65136;-82
2023/09/03 07:38:27;;;;;;;;;;;;;;;20.27;69.28;101895.21;105572;1273;126068;-80
2023/09/03 07:40:53;;;;;;;;;;;;;;;20.46;69.30;101897.77;105623;1273;61426;-81
2023/09/03 07:43:20;;;;;;;;;;;;;;;20.63;69.22;101904.60;105593;1270;124528;-81
2023/09/03 07:45:46;;;;;;;;;;;;;;;20.76;68.81;101906.75;105621;1273;245285;-84
2023/09/03 07:48:13;;;;;;;;;;;;;;;20.83;68.54;101912.48;105447;1273;65270;-81
2023/09/03 07:50:39;;;;;;;;;;;;;;;20.85;68.21;101914.62;105668;1274;124219;-81
2023/09/03 07:53:06;;;;;;;;;;;;;;;20.82;67.94;101910.34;105702;1273;61306;-80
2023/09/03 07:55:32;;;;;;;;;;;;;;;20.75;67.96;101914.44;105684;1275;124516;-86
2023/09/03 07:57:59;;;;;;;;;;;;;;;20.73;67.91;101913.90;105629;1275;73674;-88
2023/09/03 08:00:26;;;;;;;;;;;;;;;20.68;67.79;101917.10;105644;1270;65051;-84
2023/09/03 08:02:52;;;;;;;;;;;;;;;20.60;67.89;101920.28;105507;1271;124298;-83
2023/09/03 08:05:19;;;;;;;;;;;;;;;20.53;67.85;101920.42;105793;1273;60435;-83
2023/09/03 08:07:45;;;;;;;;;;;;;;;20.47;67.92;101926.28;105557;1272;124827;-82
2023/09/03 08:10:12;;;;;;;;;;;;;;;20.37;68.03;101933.58;105740;1270;61308;-82
2023/09/03 08:12:38;;;;;;;;;;;;;;;20.26;68.17;101940.66;105808;1270;61273;-83
2023/09/03 08:15:06;;;;;;;;;;;;;;;20.18;68.29;101940.98;105655;1275;124228;-83
2023/09/03 08:17:40;;;;;;;;;;;;;;;20.12;68.41;101940.78;105481;1270;61390;-83
2023/09/03 08:20:16;;;;;;;;;;;;;;;20.09;68.26;101936.31;105637;1269;124546;-83
2023/09/03 08:23:01;;;;;;;;;;;;;;;20.12;68.31;101937.92;105833;1273;74542;-83
2023/09/03 08:25:30;;;;;;;;;;;;;;;20.17;68.52;101938.30;105729;1270;125112;-83
2023/09/03 08:28:11;;;;;;;;;;;;;;;20.22;68.56;101939.58;105832;1269;73509;-86
2023/09/03 08:30:38;;;;;;;;;;;;;;;20.29;68.40;101936.94;105845;1271;61183;-86
2023/09/03 08:33:04;;;;;;;;;;;;;;;20.37;68.18;101937.49;105435;1269;124216;-86
2023/09/03 08:35:34;;;;;;;;;;;;;;;20.45;67.88;101941.97;105698;1270;74738;-87
2023/09/03 08:38:00;;;;;;;;;;;;;;;20.62;67.53;101942.59;105682;1269;124842;-88
2023/09/03 08:40:36;;;;;;;;;;;;;;;20.77;67.08;101946.73;105789;1270;72703;-87
2023/09/03 08:43:04;;;;;;;;;;;;;;;20.89;66.75;101944.79;106103;1268;61262;-87
2023/09/03 08:45:31;;;;;;;;;;;;;;;21.07;66.34;101948.02;105729;1268;124650;-86
2023/09/03 08:47:58;;;;;;;;;;;;;;;21.20;65.92;101950.34;105634;1270;74883;-86
2023/09/03 08:50:25;;;;;;;;;;;;;;;21.30;65.61;101944.26;105552;1271;124218;-88
2023/09/03 08:52:52;;;;;;;;;;;;;;;21.36;65.10;101942.48;105752;1270;72756;-87
2023/09/03 08:55:41;;;;;;;;;;;;;;;;;;;;;
2023/09/03 08:58:11;;;;;;;;;;;;;;;21.51;64.88;101932.67;105728;1270;61247;-88
2023/09/03 09:00:37;;;;;;;;;;;;;;;21.67;64.45;101926.93;105854;1268;74688;-88
2023/09/03 09:03:05;;;;;;;;;;;;;;;21.80;64.07;101924.56;105851;1270;124444;-89
2023/09/03 09:05:32;;;;;;;;;;;;;;;21.91;64.03;101921.49;105922;1268;72537;-89
2023/09/03 09:08:02;;;;;;;;;;;;;;;22.14;64.08;101925.16;105900;1269;124375;-88
2023/09/03 09:10:40;;;;;;;;;;;;;;;22.38;63.60;101924.55;105762;1270;61309;-87
2023/09/03 09:13:07;;;;;;;;;;;;;;;22.64;63.40;101921.88;105958;1271;74702;-87
2023/09/03 09:15:34;;;;;;;;;;;;;;;22.91;62.93;101914.02;105712;1270;125061;-89
2023/09/03 09:18:01;;;;;;;;;;;;;;;23.06;62.32;101915.17;105805;1268;71390;-85
2023/09/03 09:20:28;;;;;;;;;;;;;;;23.05;61.49;101915.17;105550;1272;125084;-86
2023/09/03 09:22:57;;;;;;;;;;;;;;;22.81;60.71;101912.83;105712;1270;61365;-86
2023/09/03 09:25:24;;;;;;;;;;;;;;;22.57;60.73;101914.96;105610;1270;124589;-87
2023/09/03 09:28:09;;;;;;;;;;;;;;;22.37;60.62;101918.30;105580;1270;66409;-89
2023/09/03 09:30:36;;;;;;;;;;;;;;;22.34;61.14;101920.46;105795;1269;71445;-83
2023/09/03 09:33:14;;;;;;;;;;;;;;;22.40;60.89;101921.69;105736;1268;124396;-85
2023/09/03 09:35:40;;;;;;;;;;;;;;;22.54;60.53;101916.58;105743;1270;61475;-82
2023/09/03 09:38:07;;;;;;;;;;;;;;;22.75;60.53;101915.73;105282;1270;124253;-79
2023/09/03 09:40:37;;;;;;;;;;;;;;;22.98;60.28;101917.55;105216;1269;66412;-91
2023/09/03 09:43:38;;;;;;;;;;;;;;;23.12;60.00;101917.82;105743;1269;72662;-84
2023/09/03 09:46:04;;;;;;;;;;;;;;;23.10;59.44;101929.10;105822;1269;61384;-85
2023/09/03 09:48:31;;;;;;;;;;;;;;;22.93;59.28;101934.21;105781;1269;61323;-85
2023/09/03 09:50:57;;;;;;;;;;;;;;;22.76;59.09;101937.92;105610;1270;124383;-85
2023/09/03 09:53:25;;;;;;;;;;;;;;;22.55;58.99;101936.63;105528;1270;66331;-85
2023/09/03 09:55:58;;;;;;;;;;;;;;;22.41;59.01;101944.04;105806;1270;124685;-85
2023/09/03 09:58:33;;;;;;;;;;;;;;;22.34;59.07;101940.50;105896;1270;61544;-86
2023/09/03 10:01:00;;;;;;;;;;;;;;;22.31;58.81;101942.81;105718;1270;61401;-86
2023/09/03 10:03:56;;;;;;;;;;;;;;;22.34;58.92;101937.63;105578;1270;124298;-85
2023/09/03 10:06:24;;;;;;;;;;;;;;;22.55;59.04;101940.91;105645;1271;66308;-86
2023/09/03 10:08:51;;;;;;;;;;;;;;;22.82;58.96;101938.94;105742;1271;125317;-86
2023/09/03 10:11:19;;;;;;;;;;;;;;;23.22;58.84;101942.98;105805;1270;61370;-86
2023/09/03 10:13:46;;;;;;;;;;;;;;;23.48;57.98;101941.30;105782;1275;124922;-86
2023/09/03 10:16:13;;;;;;;;;;;;;;;23.54;57.27;101940.16;105998;1269;73371;-85
2023/09/03 10:18:46;;;;;;;;;;;;;;;23.48;56.71;101938.96;105882;1273;64560;-86
2023/09/03 10:21:14;;;;;;;;;;;;;;;23.45;57.16;101936.31;106088;1269;125260;-84
2023/09/03 10:23:43;;;;;;;;;;;;;;;23.61;57.14;101943.88;106009;1270;61090;-86
2023/09/03 10:26:10;;;;;;;;;;;;;;;23.68;56.48;101942.52;106014;1271;125035;-84
2023/09/03 10:28:38;;;;;;;;;;;;;;;23.66;56.03;101947.21;106061;1270;74717;-84
2023/09/03 10:31:04;;;;;;;;;;;;;;;23.62;55.32;101951.73;105859;1276;64977;-85
2023/09/03 10:33:35;;;;;;;;;;;;;;;23.49;55.17;101949.89;105479;1267;124088;-85
2023/09/03 10:36:14;;;;;;;;;;;;;;;23.43;54.60;101951.21;105542;1270;61313;-84
2023/09/03 10:38:47;;;;;;;;;;;;;;;23.36;54.50;101944.45;105657;1269;124907;-84
2023/09/03 10:41:17;;;;;;;;;;;;;;;23.41;54.82;101943.52;105870;1270;74812;-84
2023/09/03 10:43:46;;;;;;;;;;;;;;;23.50;54.57;101940.20;105665;1270;124635;-84
2023/09/03 10:46:16;;;;;;;;;;;;;;;23.57;54.45;101939.79;105633;1269;71869;-84
2023/09/03 10:48:55;;;;;;;;;;;;;;;23.68;54.40;101935.91;105699;1273;61486;-84
2023/09/03 10:51:32;;;;;;;;;;;;;;;23.88;54.59;101931.05;105666;1271;124399;-84
2023/09/03 10:54:20;;;;;;;;;;;;;;;24.08;54.18;101930.83;105555;1271;75101;-84
2023/09/03 10:57:08;;;;;;;;;;;;;;;24.24;54.16;101933.30;105397;1268;124628;-84
2023/09/03 10:59:53;;;;;;;;;;;;;;;24.43;53.48;101932.68;105562;1270;71731;-84
2023/09/03 11:02:26;;;;;;;;;;;;;;;24.59;52.79;101935.73;105614;1270;124417;-84
2023/09/03 11:05:08;;;;;;;;;;;;;;;24.66;52.64;101932.03;105749;1273;61341;-86
2023/09/03 11:08:34;;;;;;;;;;;;;;;24.59;52.32;101936.97;105794;1270;124450;-83
2023/09/03 11:11:01;;;;;;;;;;;;;;;24.47;51.85;101933.54;105565;1270;66645;-83
2023/09/03 11:13:27;;;;;;;;;;;;;;;24.37;51.66;101939.59;105783;1269;124673;-84
2023/09/03 11:15:57;;;;;;;;;;;;;;;24.28;51.37;101935.58;105743;1270;61380;-83
2023/09/03 11:18:26;;;;;;;;;;;;;;;24.24;51.55;101932.75;105591;1270;59746;-84
2023/09/03 11:20:54;;;;;;;;;;;;;;;24.27;51.87;101935.23;105579;1271;124275;-83
2023/09/03 11:23:20;;;;;;;;;;;;;;;24.35;51.77;101937.11;105749;1270;66166;-84
2023/09/03 11:25:47;;;;;;;;;;;;;;;24.40;51.50;101929.15;105525;1270;124869;-84
2023/09/03 11:28:13;;;;;;;;;;;;;;;24.49;51.42;101929.92;105670;1270;61309;-84
2023/09/03 11:30:41;;;;;;;;;;;;;;;24.52;50.96;101925.23;105666;1267;61409;-84
2023/09/03 11:33:10;;;;;;;;;;;;;;;24.49;50.59;101919.52;105689;1269;124305;-84
2023/09/03 11:38:55;;;;;;;;;;;;;;;24.69;50.43;101922.30;105419;1271;124649;-82
2023/09/03 11:41:21;;;;;;;;;;;;;;;24.74;50.14;101926.52;105502;1273;61391;-83
2023/09/03 11:43:48;;;;;;;;;;;;;;;24.84;50.20;101930.33;105395;1276;124655;-83
2023/09/03 11:46:15;;;;;;;;;;;;;;;24.99;50.18;101934.75;105454;1276;74009;-83
2023/09/03 11:48:49;;;;;;;;;;;;;;;25.15;50.14;101931.80;105469;1272;66301;-83
2023/09/03 11:51:22;;;;;;;;;;;;;;;25.28;49.97;101936.11;105600;1271;124226;-84
2023/09/03 11:53:49;;;;;;;;;;;;;;;25.34;49.72;101939.92;105516;1273;61483;-84
2023/09/03 11:56:16;;;;;;;;;;;;;;;25.40;49.57;101945.58;105237;1273;124788;-83
2023/09/03 11:58:43;;;;;;;;;;;;;;;25.47;49.45;101948.69;105481;1273;74667;-82
2023/09/03 12:01:09;;;;;;;;;;;;;;;25.48;49.47;101948.14;105547;1274;61290;-83
2023/09/03 12:03:38;;;;;;;;;;;;;;;25.49;49.38;101947.06;105326;1271;124728;-83
2023/09/03 12:06:23;;;;;;;;;;;;;;;25.52;49.42;101948.60;105748;1273;61427;-83
2023/09/03 12:08:50;;;;;;;;;;;;;;;25.58;49.24;101947.94;105655;1275;125378;-83
2023/09/03 12:11:16;;;;;;;;;;;;;;;25.61;49.01;101949.52;106046;1270;60868;-81
2023/09/03 12:13:44;;;;;;;;;;;;;;;25.66;49.25;101951.40;105820;1270;124584;-75
2023/09/03 12:16:14;;;;;;;;;;;;;;;25.78;49.00;101951.00;104936;1270;71839;-76
2023/09/03 12:19:00;;;;;;;;;;;;;;;25.82;48.93;101952.02;105094;1268;61378;-73
2023/09/03 12:21:31;;;;;;;;;;;;;;;25.78;48.65;101957.47;104924;1271;125965;-76
2023/09/03 12:23:58;;;;;;;;;;;;;;;25.73;48.51;101957.04;106584;1270;75321;-76
2023/09/03 12:26:39;;;;;;;;;;;;;;;;;;;;;
2023/09/03 12:29:26;;;;;;;;;;;;;;;25.33;48.46;101963.70;105593;1273;72952;-82
2023/09/03 12:31:55;;;;;;;;;;;;;;;25.03;47.95;101969.52;105481;1273;124450;-81
2023/09/03 12:34:38;;;;;;;;;;;;;;;24.70;48.28;101964.81;105555;1273;61281;-82
2023/09/03 12:37:05;;;;;;;;;;;;;;;24.58;48.57;101967.50;105560;1273;73352;-82